createdAt,value
2022-07-29T00:00:01.362Z,3.60
2022-07-29T00:02:28.817Z,3.23
2022-07-29T00:04:55.329Z,3.70
2022-07-29T00:07:22.096Z,3.33
2022-07-29T00:09:51.709Z,3.30
2022-07-29T00:12:25.456Z,4.00
2022-07-29T00:14:54.631Z,3.40
2022-07-29T00:17:21.140Z,2.90
2022-07-29T00:19:47.622Z,3.00
2022-07-29T00:22:14.448Z,3.10
2022-07-29T00:24:40.894Z,3.40
2022-07-29T00:27:07.405Z,3.30
2022-07-29T00:29:35.053Z,3.50
2022-07-29T00:32:02.750Z,3.43
2022-07-29T00:34:47.861Z,3.07
2022-07-29T00:37:14.364Z,3.10
2022-07-29T00:39:40.875Z,2.93
2022-07-29T00:42:07.670Z,3.07
2022-07-29T00:44:41.251Z,2.63
2022-07-29T00:47:08.849Z,3.33
2022-07-29T00:49:35.805Z,3.83
2022-07-29T00:52:04.049Z,2.80
2022-07-29T00:54:31.254Z,2.83
2022-07-29T00:56:59.626Z,2.40
2022-07-29T00:59:34.576Z,2.37
2022-07-29T01:02:02.871Z,2.70
2022-07-29T01:04:30.705Z,2.60
2022-07-29T01:06:57.281Z,2.70
2022-07-29T01:09:45.404Z,2.53
2022-07-29T01:12:11.638Z,2.63
2022-07-29T01:14:38.688Z,2.63
2022-07-29T01:17:12.143Z,3.03
2022-07-29T01:19:50.675Z,3.03
2022-07-29T01:22:29.989Z,2.93
2022-07-29T01:25:21.884Z,3.00
2022-07-29T01:28:08.496Z,2.47
2022-07-29T01:30:39.571Z,3.20
2022-07-29T01:33:08.904Z,2.53
2022-07-29T01:35:42.299Z,2.80
2022-07-29T01:38:26.497Z,2.53
2022-07-29T01:40:57.167Z,2.70
2022-07-29T01:43:33.816Z,2.30
2022-07-29T01:46:03.016Z,2.30
2022-07-29T01:48:38.236Z,2.30
2022-07-29T01:51:29.444Z,2.13
2022-07-29T01:54:09.589Z,2.50
2022-07-29T01:56:37.250Z,2.77
2022-07-29T01:59:06.265Z,2.10
2022-07-29T02:01:34.115Z,2.33
2022-07-29T02:04:04.266Z,2.17
2022-07-29T02:06:33.167Z,3.03
2022-07-29T02:09:00.585Z,2.70
2022-07-29T02:11:27.135Z,2.07
2022-07-29T02:13:55.347Z,2.60
2022-07-29T02:16:22.950Z,2.23
2022-07-29T02:18:51.579Z,2.43
2022-07-29T02:21:22.523Z,2.50
2022-07-29T02:23:51.213Z,2.23
2022-07-29T02:26:19.357Z,2.57
2022-07-29T02:28:46.176Z,2.53
2022-07-29T02:31:13.659Z,2.17
2022-07-29T02:33:41.908Z,2.50
2022-07-29T02:36:08.768Z,2.50
2022-07-29T02:38:51.505Z,2.43
2022-07-29T02:41:30.625Z,2.17
2022-07-29T02:44:03.370Z,2.03
2022-07-29T02:46:35.266Z,2.20
2022-07-29T02:49:17.055Z,2.17
2022-07-29T02:51:52.540Z,2.30
2022-07-29T02:54:33.353Z,2.50
2022-07-29T02:57:02.366Z,2.30
2022-07-29T02:59:31.936Z,2.20
2022-07-29T03:01:59.962Z,1.80
2022-07-29T03:04:29.483Z,2.07
2022-07-29T03:06:59.742Z,2.10
2022-07-29T03:09:27.149Z,2.40
2022-07-29T03:11:55.512Z,2.47
2022-07-29T03:14:23.962Z,1.83
2022-07-29T03:16:51.754Z,1.83
2022-07-29T03:19:19.445Z,1.83
2022-07-29T03:21:46.053Z,2.07
2022-07-29T03:24:34.961Z,1.90
2022-07-29T03:27:02.060Z,1.90
2022-07-29T03:29:33.593Z,2.03
2022-07-29T03:32:02.714Z,1.90
2022-07-29T03:34:30.190Z,1.70
2022-07-29T03:36:56.764Z,1.73
2022-07-29T03:39:27.309Z,1.73
2022-07-29T03:41:57.460Z,1.70
2022-07-29T03:44:25.065Z,1.67
2022-07-29T03:46:52.510Z,1.90
2022-07-29T03:49:20.053Z,1.80
2022-07-29T03:51:47.014Z,1.83
2022-07-29T03:54:13.810Z,2.30
2022-07-29T03:56:48.509Z,1.97
2022-07-29T03:59:16.827Z,2.00
2022-07-29T04:01:43.865Z,1.90
2022-07-29T04:04:10.626Z,2.07
2022-07-29T04:06:44.329Z,1.80
2022-07-29T04:09:12.905Z,2.13
2022-07-29T04:12:02.688Z,1.83
2022-07-29T04:14:27.196Z,1.80
2022-07-29T04:16:54.142Z,1.93
2022-07-29T04:19:20.791Z,1.80
2022-07-29T04:21:47.804Z,2.23
2022-07-29T04:24:14.561Z,2.27
2022-07-29T04:26:41.632Z,1.90
2022-07-29T04:29:08.268Z,1.70
2022-07-29T04:31:35.045Z,1.57
2022-07-29T04:34:01.635Z,1.50
2022-07-29T04:36:28.729Z,1.50
2022-07-29T04:38:56.217Z,1.80
2022-07-29T04:41:22.650Z,1.57
2022-07-29T04:43:50.003Z,1.80
2022-07-29T04:46:16.827Z,1.47
2022-07-29T04:48:43.540Z,1.60
2022-07-29T04:51:10.208Z,1.60
2022-07-29T04:53:36.651Z,1.67
2022-07-29T04:56:04.118Z,1.67
2022-07-29T04:58:30.771Z,1.63
2022-07-29T05:00:57.323Z,1.30
2022-07-29T05:03:23.816Z,1.40
2022-07-29T05:05:50.539Z,1.77
2022-07-29T05:08:17.085Z,1.30
2022-07-29T05:10:43.610Z,1.43
2022-07-29T05:13:10.394Z,1.60
2022-07-29T05:15:37.668Z,1.40
2022-07-29T05:18:04.797Z,1.17
2022-07-29T05:20:31.911Z,2.40
2022-07-29T05:23:04.829Z,1.20
2022-07-29T05:25:42.945Z,1.40
2022-07-29T05:28:12.283Z,1.57
2022-07-29T05:30:39.474Z,1.17
2022-07-29T05:33:06.043Z,1.50
2022-07-29T05:35:32.784Z,1.20
2022-07-29T05:37:59.380Z,1.17
2022-07-29T05:40:25.817Z,1.23
2022-07-29T05:42:52.483Z,1.40
2022-07-29T05:45:19.129Z,1.03
2022-07-29T05:47:46.486Z,1.43
2022-07-29T05:50:13.391Z,1.50
2022-07-29T05:52:40.128Z,1.07
2022-07-29T05:55:06.902Z,1.10
2022-07-29T05:57:33.748Z,1.30
2022-07-29T06:00:00.439Z,1.10
2022-07-29T06:02:27.070Z,1.27
2022-07-29T06:04:53.836Z,1.40
2022-07-29T06:07:20.811Z,1.47
2022-07-29T06:09:47.438Z,1.07
2022-07-29T06:12:14.174Z,1.10
2022-07-29T06:14:41.106Z,1.03
2022-07-29T06:17:07.899Z,1.27
2022-07-29T06:19:37.682Z,1.10
2022-07-29T06:22:04.869Z,1.10
2022-07-29T06:24:31.677Z,1.00
2022-07-29T06:26:58.359Z,1.07
2022-07-29T06:29:24.865Z,1.17
2022-07-29T06:31:51.707Z,0.90
2022-07-29T06:34:18.582Z,1.57
2022-07-29T06:36:46.036Z,1.13
2022-07-29T06:39:12.941Z,1.60
2022-07-29T06:41:39.825Z,1.20
2022-07-29T06:44:06.506Z,0.93
2022-07-29T06:46:33.621Z,1.20
2022-07-29T06:49:03.170Z,1.20
2022-07-29T06:51:29.917Z,1.17
2022-07-29T06:54:02.454Z,1.00
2022-07-29T06:56:39.663Z,1.17
2022-07-29T06:59:10.330Z,1.20
2022-07-29T07:01:38.643Z,1.40
2022-07-29T07:04:05.379Z,1.40
2022-07-29T07:06:31.946Z,1.00
2022-07-29T07:08:58.584Z,1.20
2022-07-29T07:11:25.078Z,1.17
2022-07-29T07:13:51.625Z,0.93
2022-07-29T07:16:18.186Z,1.30
2022-07-29T07:18:46.154Z,1.20
2022-07-29T07:21:13.296Z,1.30
2022-07-29T07:23:46.045Z,1.20
2022-07-29T07:26:12.541Z,1.50
2022-07-29T07:28:39.546Z,1.15
2022-07-29T07:31:06.211Z,0.90
2022-07-29T07:33:32.702Z,1.00
2022-07-29T07:35:59.464Z,1.35
2022-07-29T07:38:26.019Z,1.40
2022-07-29T07:40:52.768Z,1.27
2022-07-29T07:43:19.338Z,1.20
2022-07-29T07:45:46.192Z,1.13
2022-07-29T07:48:12.757Z,1.30
2022-07-29T07:50:39.622Z,1.35
2022-07-29T07:53:06.472Z,1.40
2022-07-29T07:56:00.024Z,0.93
2022-07-29T07:58:19.698Z,1.58
2022-07-29T08:00:46.307Z,1.20
2022-07-29T08:03:16.817Z,1.13
2022-07-29T08:05:44.056Z,1.10
2022-07-29T08:08:11.047Z,1.50
2022-07-29T08:11:00.594Z,1.40
2022-07-29T08:13:31.309Z,1.33
2022-07-29T08:16:03.252Z,1.17
2022-07-29T08:18:31.092Z,1.30
2022-07-29T08:20:58.626Z,1.20
2022-07-29T08:23:25.540Z,1.53
2022-07-29T08:25:52.436Z,1.03
2022-07-29T08:28:21.729Z,1.00
2022-07-29T08:30:52.873Z,1.10
2022-07-29T08:33:19.618Z,1.63
2022-07-29T08:35:46.607Z,2.03
2022-07-29T08:38:13.601Z,1.50
2022-07-29T08:40:40.673Z,1.47
2022-07-29T08:43:08.686Z,1.13
2022-07-29T08:45:48.062Z,1.20
2022-07-29T08:48:22.418Z,1.00
2022-07-29T08:50:52.457Z,1.30
2022-07-29T08:53:19.413Z,1.67
2022-07-29T08:55:48.105Z,1.10
2022-07-29T08:58:15.947Z,0.90
2022-07-29T09:00:45.217Z,2.73
2022-07-29T09:03:17.561Z,1.20
2022-07-29T09:05:47.849Z,1.37
2022-07-29T09:08:16.440Z,1.20
2022-07-29T09:10:43.203Z,1.10
2022-07-29T09:13:09.770Z,1.10
2022-07-29T09:15:36.258Z,1.33
2022-07-29T09:18:04.270Z,0.90
2022-07-29T09:20:50.830Z,1.20
2022-07-29T09:23:24.072Z,0.90
2022-07-29T09:25:51.013Z,1.20
2022-07-29T09:28:17.952Z,1.23
2022-07-29T09:30:59.330Z,1.17
2022-07-29T09:33:33.965Z,0.90
2022-07-29T09:36:06.238Z,1.67
2022-07-29T09:38:33.750Z,0.87
2022-07-29T09:41:05.896Z,0.93
2022-07-29T09:43:33.512Z,0.90
2022-07-29T09:46:14.134Z,1.07
2022-07-29T09:48:41.072Z,0.70
2022-07-29T09:51:20.653Z,0.83
2022-07-29T09:53:49.059Z,0.90
2022-07-29T09:56:15.564Z,0.90
2022-07-29T09:58:42.036Z,1.00
2022-07-29T10:01:08.797Z,0.70
2022-07-29T10:03:52.027Z,0.97
2022-07-29T10:06:18.816Z,1.00
2022-07-29T10:08:45.411Z,0.97
2022-07-29T10:11:14.502Z,0.93
2022-07-29T10:13:43.030Z,1.37
2022-07-29T10:16:09.880Z,1.17
2022-07-29T10:18:36.542Z,1.77
2022-07-29T10:21:03.812Z,1.10
2022-07-29T10:23:31.082Z,1.53
2022-07-29T10:26:14.014Z,1.27
2022-07-29T10:28:40.754Z,0.93
2022-07-29T10:31:09.425Z,1.00
2022-07-29T10:33:54.604Z,0.90
2022-07-29T10:36:24.573Z,0.80
2022-07-29T10:39:03.438Z,1.00
2022-07-29T10:41:44.470Z,1.30
2022-07-29T10:44:29.974Z,0.77
2022-07-29T10:46:56.825Z,1.07
2022-07-29T10:49:27.700Z,0.77
2022-07-29T10:52:08.560Z,1.10
2022-07-29T10:54:43.719Z,0.67
2022-07-29T10:57:17.756Z,1.07
2022-07-29T10:59:46.380Z,0.90
2022-07-29T11:02:42.406Z,1.13
2022-07-29T11:05:20.170Z,0.87
2022-07-29T11:08:20.116Z,1.00
2022-07-29T11:10:51.630Z,1.00
2022-07-29T11:13:43.169Z,0.87
2022-07-29T11:16:09.677Z,0.80
2022-07-29T11:18:37.837Z,1.10
2022-07-29T11:21:04.554Z,0.63
2022-07-29T11:23:40.417Z,0.90
2022-07-29T11:26:23.320Z,0.60
2022-07-29T11:29:03.345Z,0.70
2022-07-29T11:31:34.336Z,1.00
2022-07-29T11:34:20.931Z,0.80
2022-07-29T11:37:15.042Z,0.83
2022-07-29T11:39:47.669Z,1.00
2022-07-29T11:42:28.785Z,0.90
2022-07-29T11:45:42.004Z,0.50
2022-07-29T11:48:05.325Z,1.10
2022-07-29T11:50:45.944Z,0.90
2022-07-29T11:53:15.273Z,1.00
2022-07-29T11:55:51.626Z,0.97
2022-07-29T11:58:25.025Z,0.90
2022-07-29T12:00:52.805Z,0.80
2022-07-29T12:03:33.581Z,1.00
2022-07-29T12:06:02.792Z,0.50
2022-07-29T12:08:29.429Z,1.00
2022-07-29T12:10:55.987Z,0.70
2022-07-29T12:13:22.973Z,0.80
2022-07-29T12:16:05.228Z,0.80
2022-07-29T12:18:32.012Z,0.70
2022-07-29T12:21:03.421Z,0.80
2022-07-29T12:23:34.943Z,0.90
2022-07-29T12:26:05.186Z,1.20
2022-07-29T12:28:38.680Z,1.27
2022-07-29T12:31:05.886Z,0.80
2022-07-29T12:33:32.455Z,0.77
2022-07-29T12:36:06.955Z,0.60
2022-07-29T12:38:35.833Z,1.00
2022-07-29T12:41:02.836Z,1.00
2022-07-29T12:43:31.791Z,0.90
2022-07-29T12:45:58.362Z,0.60
2022-07-29T12:48:38.891Z,0.63
2022-07-29T12:51:07.712Z,0.83
2022-07-29T12:53:34.944Z,0.70
2022-07-29T12:56:20.692Z,0.87
2022-07-29T12:58:53.819Z,0.60
2022-07-29T13:01:21.985Z,0.50
2022-07-29T13:03:57.195Z,0.90
2022-07-29T13:06:30.753Z,0.93
2022-07-29T13:09:08.280Z,0.80
2022-07-29T13:11:44.019Z,0.80
2022-07-29T13:14:15.802Z,1.80
2022-07-29T13:17:11.726Z,0.77
2022-07-29T13:19:43.223Z,0.60
2022-07-29T13:22:14.996Z,0.87
2022-07-29T13:24:58.804Z,0.60
2022-07-29T13:27:30.404Z,0.77
2022-07-29T13:29:58.750Z,0.60
2022-07-29T13:32:28.522Z,0.87
2022-07-29T13:35:01.159Z,0.70
2022-07-29T13:37:33.924Z,0.70
2022-07-29T13:40:00.916Z,0.70
2022-07-29T13:42:27.754Z,0.90
2022-07-29T13:44:54.869Z,0.70
2022-07-29T13:47:22.023Z,0.80
2022-07-29T13:49:49.239Z,0.50
2022-07-29T13:52:16.722Z,0.60
2022-07-29T13:54:44.167Z,0.80
2022-07-29T13:57:12.063Z,0.67
2022-07-29T13:59:42.870Z,1.10
2022-07-29T14:02:10.705Z,0.97
2022-07-29T14:04:39.611Z,0.87
2022-07-29T14:07:06.901Z,0.70
2022-07-29T14:09:41.190Z,1.00
2022-07-29T14:12:08.904Z,0.80
2022-07-29T14:14:37.625Z,0.80
2022-07-29T14:17:07.234Z,0.73
2022-07-29T14:19:36.601Z,0.90
2022-07-29T14:22:05.989Z,0.97
2022-07-29T14:24:33.871Z,0.90
2022-07-29T14:27:05.480Z,0.70
2022-07-29T14:29:37.775Z,0.77
2022-07-29T14:32:08.957Z,0.73
2022-07-29T14:34:39.307Z,0.80
2022-07-29T14:37:06.715Z,0.90
2022-07-29T14:39:36.923Z,0.90
2022-07-29T14:42:06.424Z,0.93
2022-07-29T14:44:33.079Z,1.27
2022-07-29T14:47:00.931Z,0.80
2022-07-29T14:49:33.919Z,0.47
2022-07-29T14:52:01.225Z,0.73
2022-07-29T14:54:28.404Z,0.83
2022-07-29T14:56:57.962Z,0.90
2022-07-29T14:59:25.178Z,0.80
2022-07-29T15:01:51.893Z,0.80
2022-07-29T15:04:18.548Z,0.70
2022-07-29T15:06:45.211Z,0.80
2022-07-29T15:09:11.967Z,1.00
2022-07-29T15:11:38.952Z,0.83
2022-07-29T15:14:06.678Z,0.63
2022-07-29T15:16:34.219Z,0.80
2022-07-29T15:19:01.909Z,0.90
2022-07-29T15:21:28.687Z,0.70
2022-07-29T15:23:55.409Z,1.10
2022-07-29T15:26:22.007Z,0.77
2022-07-29T15:28:48.917Z,0.87
2022-07-29T15:31:15.847Z,1.03
2022-07-29T15:33:42.482Z,1.07
2022-07-29T15:36:09.234Z,2.40
2022-07-29T15:38:35.925Z,1.60
2022-07-29T15:41:08.908Z,1.73
2022-07-29T15:43:38.724Z,1.40
2022-07-29T15:46:23.891Z,1.30
2022-07-29T15:48:50.891Z,0.80
2022-07-29T15:51:17.519Z,0.90
2022-07-29T15:53:44.036Z,1.13
2022-07-29T15:56:20.836Z,0.80
2022-07-29T15:58:47.359Z,0.90
2022-07-29T16:01:14.037Z,1.00
2022-07-29T16:03:45.731Z,1.10
2022-07-29T16:06:12.846Z,0.70
2022-07-29T16:08:39.605Z,0.90
2022-07-29T16:11:06.325Z,1.00
2022-07-29T16:13:32.817Z,0.90
2022-07-29T16:16:01.848Z,1.00
2022-07-29T16:18:30.543Z,1.37
2022-07-29T16:20:57.320Z,1.20
2022-07-29T16:23:24.676Z,0.77
2022-07-29T16:25:59.638Z,1.07
2022-07-29T16:28:26.888Z,0.80
2022-07-29T16:30:53.680Z,1.17
2022-07-29T16:33:20.147Z,1.00
2022-07-29T16:35:46.645Z,0.80
2022-07-29T16:38:13.465Z,1.13
2022-07-29T16:40:40.049Z,1.13
2022-07-29T16:43:06.641Z,0.93
2022-07-29T16:45:43.890Z,1.00
2022-07-29T16:48:14.066Z,0.90
2022-07-29T16:50:41.170Z,0.80
2022-07-29T16:53:10.589Z,0.90
2022-07-29T16:55:37.118Z,0.90
2022-07-29T16:58:06.524Z,0.80
2022-07-29T17:00:33.170Z,0.80
2022-07-29T17:03:00.060Z,0.80
2022-07-29T17:05:29.720Z,0.90
2022-07-29T17:08:16.331Z,0.87
2022-07-29T17:10:43.057Z,0.80
2022-07-29T17:13:09.587Z,0.83
2022-07-29T17:15:36.631Z,1.20
2022-07-29T17:18:12.851Z,1.20
2022-07-29T17:20:41.422Z,1.03
2022-07-29T17:23:08.087Z,0.80
2022-07-29T17:25:34.562Z,0.73
2022-07-29T17:28:01.567Z,0.90
2022-07-29T17:30:29.189Z,0.80
2022-07-29T17:32:55.887Z,1.20
2022-07-29T17:35:41.188Z,1.00
2022-07-29T17:38:07.669Z,1.30
2022-07-29T17:40:34.192Z,1.10
2022-07-29T17:43:00.791Z,1.10
2022-07-29T17:45:49.948Z,1.10
2022-07-29T17:48:14.446Z,0.83
2022-07-29T17:50:41.190Z,1.03
2022-07-29T17:53:15.538Z,0.80
2022-07-29T17:55:45.519Z,1.10
2022-07-29T17:58:12.292Z,1.03
2022-07-29T18:00:39.217Z,1.03
2022-07-29T18:03:06.174Z,1.00
2022-07-29T18:05:33.003Z,0.90
2022-07-29T18:07:59.525Z,1.20
2022-07-29T18:10:26.431Z,0.90
2022-07-29T18:12:52.937Z,1.00
2022-07-29T18:15:19.528Z,1.13
2022-07-29T18:17:56.813Z,1.10
2022-07-29T18:20:23.968Z,1.43
2022-07-29T18:22:51.240Z,1.30
2022-07-29T18:25:17.829Z,1.23
2022-07-29T18:27:44.484Z,1.40
2022-07-29T18:30:11.287Z,1.17
2022-07-29T18:32:37.827Z,1.30
2022-07-29T18:35:06.352Z,0.90
2022-07-29T18:38:00.871Z,1.50
2022-07-29T18:40:23.945Z,1.47
2022-07-29T18:42:50.677Z,1.20
2022-07-29T18:45:19.568Z,1.33
2022-07-29T18:47:47.586Z,1.20
2022-07-29T18:50:14.743Z,1.20
2022-07-29T18:52:41.541Z,1.47
2022-07-29T18:55:08.726Z,1.40
2022-07-29T18:57:54.745Z,1.43
2022-07-29T19:00:23.793Z,1.67
2022-07-29T19:02:50.700Z,1.50
2022-07-29T19:05:17.332Z,1.40
2022-07-29T19:07:43.853Z,1.80
2022-07-29T19:10:11.322Z,2.00
2022-07-29T19:12:37.883Z,1.80
2022-07-29T19:15:04.796Z,1.03
2022-07-29T19:17:31.446Z,1.23
2022-07-29T19:19:58.129Z,1.57
2022-07-29T19:22:24.718Z,1.37
2022-07-29T19:24:51.472Z,1.27
2022-07-29T19:27:18.094Z,1.83
2022-07-29T19:29:44.695Z,1.63
2022-07-29T19:32:11.546Z,1.83
2022-07-29T19:34:38.448Z,1.17
2022-07-29T19:37:05.316Z,1.73
2022-07-29T19:39:35.385Z,1.53
2022-07-29T19:42:03.513Z,1.50
2022-07-29T19:44:30.187Z,1.60
2022-07-29T19:46:57.329Z,1.37
2022-07-29T19:49:24.151Z,1.40
2022-07-29T19:51:50.724Z,1.47
2022-07-29T19:54:20.199Z,1.40
2022-07-29T19:56:46.682Z,1.53
2022-07-29T19:59:13.155Z,1.30
2022-07-29T20:01:39.913Z,1.37
2022-07-29T20:04:06.489Z,1.37
2022-07-29T20:06:33.115Z,1.60
2022-07-29T20:08:59.685Z,1.87
2022-07-29T20:11:26.581Z,1.40
2022-07-29T20:13:53.221Z,1.77
2022-07-29T20:16:19.939Z,1.60
2022-07-29T20:18:46.484Z,1.93
2022-07-29T20:21:13.437Z,1.40
2022-07-29T20:23:40.010Z,1.63
2022-07-29T20:26:09.516Z,1.10
2022-07-29T20:28:37.218Z,1.43
2022-07-29T20:31:04.599Z,1.43
2022-07-29T20:33:31.085Z,1.40
2022-07-29T20:35:57.588Z,1.30
2022-07-29T20:38:24.153Z,1.40
2022-07-29T20:40:50.904Z,1.40
2022-07-29T20:43:17.482Z,1.00
2022-07-29T20:45:44.102Z,1.10
2022-07-29T20:48:10.729Z,1.10
2022-07-29T20:50:37.272Z,1.40
2022-07-29T20:53:04.753Z,1.80
2022-07-29T20:55:32.097Z,2.03
2022-07-29T20:57:58.845Z,1.70
2022-07-29T21:00:25.520Z,1.30
2022-07-29T21:02:52.074Z,1.47
2022-07-29T21:05:18.599Z,1.40
2022-07-29T21:07:45.317Z,1.30
2022-07-29T21:10:12.109Z,1.23
2022-07-29T21:12:38.658Z,1.33
2022-07-29T21:15:06.634Z,1.27
2022-07-29T21:17:38.912Z,1.10
2022-07-29T21:20:08.620Z,1.40
2022-07-29T21:22:35.128Z,1.30
2022-07-29T21:25:01.750Z,1.53
2022-07-29T21:27:47.283Z,1.20
2022-07-29T21:30:13.838Z,2.20
2022-07-29T21:32:40.568Z,1.50
2022-07-29T21:35:14.580Z,1.13
2022-07-29T21:37:54.061Z,1.33
2022-07-29T21:40:20.972Z,1.17
2022-07-29T21:42:47.504Z,1.47
2022-07-29T21:45:16.279Z,1.33
2022-07-29T21:47:42.919Z,1.20
2022-07-29T21:50:09.732Z,1.13
2022-07-29T21:52:37.393Z,1.40
2022-07-29T21:55:04.986Z,1.40
2022-07-29T21:57:31.556Z,1.00
2022-07-29T22:00:02.515Z,1.40
2022-07-29T22:02:29.720Z,1.20
2022-07-29T22:04:56.207Z,1.50
2022-07-29T22:07:22.712Z,1.20
2022-07-29T22:09:49.346Z,1.10
2022-07-29T22:12:16.228Z,1.07
2022-07-29T22:14:42.696Z,1.20
2022-07-29T22:17:09.366Z,1.17
2022-07-29T22:19:35.900Z,1.20
2022-07-29T22:22:02.620Z,1.40
2022-07-29T22:24:29.214Z,1.30
2022-07-29T22:26:55.912Z,1.10
2022-07-29T22:29:22.425Z,1.30
2022-07-29T22:31:49.225Z,1.30
2022-07-29T22:34:15.740Z,0.93
2022-07-29T22:36:43.308Z,1.30
2022-07-29T22:39:09.871Z,1.20
2022-07-29T22:41:36.366Z,1.20
2022-07-29T22:44:03.091Z,1.17
2022-07-29T22:46:30.104Z,1.07
2022-07-29T22:48:57.641Z,1.10
2022-07-29T22:51:24.278Z,1.30
2022-07-29T22:53:51.396Z,1.10
2022-07-29T22:56:18.809Z,1.30
2022-07-29T22:58:45.420Z,0.80
2022-07-29T23:01:11.986Z,1.17
2022-07-29T23:03:39.505Z,1.20
2022-07-29T23:06:06.135Z,1.40
2022-07-29T23:08:32.635Z,1.23
2022-07-29T23:10:59.129Z,1.40
2022-07-29T23:13:25.741Z,1.30
2022-07-29T23:15:52.335Z,1.10
2022-07-29T23:18:18.873Z,1.17
2022-07-29T23:20:45.429Z,1.07
2022-07-29T23:23:11.956Z,1.20
2022-07-29T23:25:38.465Z,1.00
2022-07-29T23:28:05.386Z,1.33
2022-07-29T23:30:32.069Z,1.20
2022-07-29T23:32:58.677Z,1.20
2022-07-29T23:35:25.445Z,1.40
2022-07-29T23:37:52.295Z,1.30
2022-07-29T23:40:18.966Z,1.20
2022-07-29T23:42:45.560Z,1.20
2022-07-29T23:45:13.500Z,1.20
2022-07-29T23:47:40.166Z,1.37
2022-07-29T23:50:08.430Z,1.10
2022-07-29T23:52:35.684Z,1.10
2022-07-29T23:55:36.502Z,1.10
2022-07-29T23:57:50.284Z,1.30
